sensor_id;sensor_type;location;lat;lon;timestamp;P1;durP1;ratioP1;P2;durP2;ratioP2
68976;SDS011;56029;52.568;13.588;2023-04-06T00:01:52;9.20;;;5.40;;
68976;SDS011;56029;52.568;13.588;2023-04-06T00:04:17;11.57;;;6.00;;
68976;SDS011;56029;52.568;13.588;2023-04-06T00:06:43;10.52;;;5.55;;
68976;SDS011;56029;52.568;13.588;2023-04-06T00:09:09;11.60;;;6.00;;
68976;SDS011;56029;52.568;13.588;2023-04-06T00:11:35;12.07;;;6.00;;
68976;SDS011;56029;52.568;13.588;2023-04-06T00:14:00;11.95;;;5.75;;
68976;SDS011;56029;52.568;13.588;2023-04-06T00:16:26;10.47;;;5.80;;
68976;SDS011;56029;52.568;13.588;2023-04-06T00:18:52;9.75;;;6.13;;
68976;SDS011;56029;52.568;13.588;2023-04-06T00:21:17;10.27;;;5.90;;
68976;SDS011;56029;52.568;13.588;2023-04-06T00:23:43;11.90;;;6.25;;
68976;SDS011;56029;52.568;13.588;2023-04-06T00:26:11;11.20;;;6.37;;
68976;SDS011;56029;52.568;13.588;2023-04-06T00:28:37;11.88;;;6.68;;
68976;SDS011;56029;52.568;13.588;2023-04-06T00:31:03;12.07;;;6.37;;
68976;SDS011;56029;52.568;13.588;2023-04-06T00:33:29;11.45;;;6.50;;
68976;SDS011;56029;52.568;13.588;2023-04-06T00:35:54;12.48;;;6.63;;
68976;SDS011;56029;52.568;13.588;2023-04-06T00:38:21;12.47;;;6.87;;
68976;SDS011;56029;52.568;13.588;2023-04-06T00:40:47;11.85;;;7.18;;
68976;SDS011;56029;52.568;13.588;2023-04-06T00:43:12;12.70;;;7.03;;
68976;SDS011;56029;52.568;13.588;2023-04-06T00:45:41;14.30;;;6.93;;
68976;SDS011;56029;52.568;13.588;2023-04-06T00:48:07;14.73;;;7.82;;
68976;SDS011;56029;52.568;13.588;2023-04-06T00:50:36;12.53;;;7.37;;
68976;SDS011;56029;52.568;13.588;2023-04-06T00:53:01;11.65;;;6.55;;
68976;SDS011;56029;52.568;13.588;2023-04-06T00:55:27;12.77;;;7.50;;
68976;SDS011;56029;52.568;13.588;2023-04-06T00:57:53;14.13;;;8.65;;
68976;SDS011;56029;52.568;13.588;2023-04-06T01:00:20;13.55;;;7.32;;
68976;SDS011;56029;52.568;13.588;2023-04-06T01:02:45;14.80;;;7.50;;
68976;SDS011;56029;52.568;13.588;2023-04-06T01:05:12;12.38;;;6.80;;
68976;SDS011;56029;52.568;13.588;2023-04-06T01:07:37;11.60;;;7.40;;
68976;SDS011;56029;52.568;13.588;2023-04-06T01:10:03;13.43;;;7.60;;
68976;SDS011;56029;52.568;13.588;2023-04-06T01:12:29;13.73;;;7.30;;
68976;SDS011;56029;52.568;13.588;2023-04-06T01:14:59;12.10;;;7.22;;
68976;SDS011;56029;52.568;13.588;2023-04-06T01:17:24;13.98;;;7.55;;
68976;SDS011;56029;52.568;13.588;2023-04-06T01:19:50;12.90;;;7.17;;
68976;SDS011;56029;52.568;13.588;2023-04-06T01:22:19;12.80;;;7.40;;
68976;SDS011;56029;52.568;13.588;2023-04-06T01:24:45;13.68;;;7.65;;
68976;SDS011;56029;52.568;13.588;2023-04-06T01:27:11;13.93;;;7.30;;
68976;SDS011;56029;52.568;13.588;2023-04-06T01:29:38;14.20;;;7.70;;
68976;SDS011;56029;52.568;13.588;2023-04-06T01:32:06;12.53;;;7.10;;
68976;SDS011;56029;52.568;13.588;2023-04-06T01:34:32;13.65;;;7.10;;
68976;SDS011;56029;52.568;13.588;2023-04-06T01:36:57;12.13;;;7.20;;
68976;SDS011;56029;52.568;13.588;2023-04-06T01:39:23;13.50;;;7.18;;
68976;SDS011;56029;52.568;13.588;2023-04-06T01:41:48;12.63;;;7.50;;
68976;SDS011;56029;52.568;13.588;2023-04-06T01:44:16;12.82;;;7.05;;
68976;SDS011;56029;52.568;13.588;2023-04-06T01:46:42;11.80;;;6.90;;
68976;SDS011;56029;52.568;13.588;2023-04-06T01:49:07;11.73;;;7.25;;
68976;SDS011;56029;52.568;13.588;2023-04-06T01:51:33;12.60;;;7.10;;
68976;SDS011;56029;52.568;13.588;2023-04-06T01:53:58;10.97;;;6.93;;
68976;SDS011;56029;52.568;13.588;2023-04-06T01:56:24;13.03;;;7.20;;
68976;SDS011;56029;52.568;13.588;2023-04-06T01:58:49;11.93;;;7.15;;
68976;SDS011;56029;52.568;13.588;2023-04-06T02:01:15;12.87;;;7.30;;
68976;SDS011;56029;52.568;13.588;2023-04-06T02:03:41;14.20;;;7.50;;
68976;SDS011;56029;52.568;13.588;2023-04-06T02:06:06;14.40;;;7.63;;
68976;SDS011;56029;52.568;13.588;2023-04-06T02:08:32;13.07;;;7.00;;
68976;SDS011;56029;52.568;13.588;2023-04-06T02:10:57;13.23;;;7.45;;
68976;SDS011;56029;52.568;13.588;2023-04-06T02:13:23;13.80;;;7.73;;
68976;SDS011;56029;52.568;13.588;2023-04-06T02:15:48;14.23;;;7.60;;
68976;SDS011;56029;52.568;13.588;2023-04-06T02:18:14;15.43;;;8.18;;
68976;SDS011;56029;52.568;13.588;2023-04-06T02:20:40;14.47;;;7.63;;
68976;SDS011;56029;52.568;13.588;2023-04-06T02:23:06;13.60;;;7.47;;
68976;SDS011;56029;52.568;13.588;2023-04-06T02:25:32;13.52;;;7.88;;
68976;SDS011;56029;52.568;13.588;2023-04-06T02:27:57;13.93;;;8.37;;
68976;SDS011;56029;52.568;13.588;2023-04-06T02:30:23;14.70;;;8.43;;
68976;SDS011;56029;52.568;13.588;2023-04-06T02:32:48;14.45;;;7.50;;
68976;SDS011;56029;52.568;13.588;2023-04-06T02:35:14;15.67;;;8.00;;
68976;SDS011;56029;52.568;13.588;2023-04-06T02:37:40;15.65;;;8.23;;
68976;SDS011;56029;52.568;13.588;2023-04-06T02:40:05;15.03;;;8.30;;
68976;SDS011;56029;52.568;13.588;2023-04-06T02:42:31;14.55;;;8.18;;
68976;SDS011;56029;52.568;13.588;2023-04-06T02:44:57;14.87;;;8.00;;
68976;SDS011;56029;52.568;13.588;2023-04-06T02:47:23;13.90;;;7.97;;
68976;SDS011;56029;52.568;13.588;2023-04-06T02:49:48;13.03;;;7.80;;
68976;SDS011;56029;52.568;13.588;2023-04-06T02:52:14;16.67;;;8.50;;
68976;SDS011;56029;52.568;13.588;2023-04-06T02:54:39;16.33;;;8.40;;
68976;SDS011;56029;52.568;13.588;2023-04-06T02:57:05;15.27;;;8.03;;
68976;SDS011;56029;52.568;13.588;2023-04-06T02:59:30;14.32;;;8.05;;
68976;SDS011;56029;52.568;13.588;2023-04-06T03:01:56;16.13;;;8.27;;
68976;SDS011;56029;52.568;13.588;2023-04-06T03:04:22;15.60;;;8.67;;
68976;SDS011;56029;52.568;13.588;2023-04-06T03:06:50;15.13;;;8.38;;
68976;SDS011;56029;52.568;13.588;2023-04-06T03:09:16;15.65;;;8.77;;
68976;SDS011;56029;52.568;13.588;2023-04-06T03:11:42;16.17;;;9.10;;
68976;SDS011;56029;52.568;13.588;2023-04-06T03:14:07;16.63;;;8.10;;
68976;SDS011;56029;52.568;13.588;2023-04-06T03:16:33;16.80;;;8.47;;
68976;SDS011;56029;52.568;13.588;2023-04-06T03:18:58;16.37;;;8.73;;
68976;SDS011;56029;52.568;13.588;2023-04-06T03:21:24;16.50;;;9.00;;
68976;SDS011;56029;52.568;13.588;2023-04-06T03:23:49;16.33;;;8.57;;
68976;SDS011;56029;52.568;13.588;2023-04-06T03:26:16;15.98;;;9.25;;
68976;SDS011;56029;52.568;13.588;2023-04-06T03:28:42;16.40;;;8.53;;
68976;SDS011;56029;52.568;13.588;2023-04-06T03:31:07;18.60;;;8.95;;
68976;SDS011;56029;52.568;13.588;2023-04-06T03:33:33;17.87;;;9.50;;
68976;SDS011;56029;52.568;13.588;2023-04-06T03:35:58;16.47;;;9.10;;
68976;SDS011;56029;52.568;13.588;2023-04-06T03:38:24;17.97;;;9.53;;
68976;SDS011;56029;52.568;13.588;2023-04-06T03:40:49;19.02;;;9.88;;
68976;SDS011;56029;52.568;13.588;2023-04-06T03:43:15;20.77;;;9.40;;
68976;SDS011;56029;52.568;13.588;2023-04-06T03:45:41;18.90;;;9.50;;
68976;SDS011;56029;52.568;13.588;2023-04-06T03:48:06;20.83;;;9.77;;
68976;SDS011;56029;52.568;13.588;2023-04-06T03:50:31;19.03;;;9.83;;
68976;SDS011;56029;52.568;13.588;2023-04-06T03:52:57;16.73;;;9.37;;
68976;SDS011;56029;52.568;13.588;2023-04-06T03:55:23;21.10;;;9.95;;
68976;SDS011;56029;52.568;13.588;2023-04-06T03:57:48;19.30;;;9.77;;
68976;SDS011;56029;52.568;13.588;2023-04-06T04:00:14;20.37;;;9.90;;
68976;SDS011;56029;52.568;13.588;2023-04-06T04:02:40;18.25;;;9.88;;
68976;SDS011;56029;52.568;13.588;2023-04-06T04:05:05;19.30;;;9.60;;
68976;SDS011;56029;52.568;13.588;2023-04-06T04:07:31;16.13;;;9.30;;
68976;SDS011;56029;52.568;13.588;2023-04-06T04:09:57;17.33;;;9.60;;
68976;SDS011;56029;52.568;13.588;2023-04-06T04:12:22;17.77;;;10.13;;
68976;SDS011;56029;52.568;13.588;2023-04-06T04:14:48;19.10;;;10.33;;
68976;SDS011;56029;52.568;13.588;2023-04-06T04:17:13;19.07;;;10.37;;
68976;SDS011;56029;52.568;13.588;2023-04-06T04:19:39;17.38;;;9.77;;
68976;SDS011;56029;52.568;13.588;2023-04-06T04:22:04;19.93;;;10.30;;
68976;SDS011;56029;52.568;13.588;2023-04-06T04:24:31;18.45;;;10.77;;
68976;SDS011;56029;52.568;13.588;2023-04-06T04:26:56;19.03;;;10.27;;
68976;SDS011;56029;52.568;13.588;2023-04-06T04:29:22;18.65;;;10.30;;
68976;SDS011;56029;52.568;13.588;2023-04-06T04:31:48;19.93;;;10.87;;
68976;SDS011;56029;52.568;13.588;2023-04-06T04:34:14;19.73;;;10.45;;
68976;SDS011;56029;52.568;13.588;2023-04-06T04:36:40;18.52;;;10.38;;
68976;SDS011;56029;52.568;13.588;2023-04-06T04:39:07;19.98;;;10.20;;
68976;SDS011;56029;52.568;13.588;2023-04-06T04:41:33;20.13;;;10.52;;
68976;SDS011;56029;52.568;13.588;2023-04-06T04:43:59;20.15;;;11.20;;
68976;SDS011;56029;52.568;13.588;2023-04-06T04:46:24;20.47;;;10.47;;
68976;SDS011;56029;52.568;13.588;2023-04-06T04:48:50;19.90;;;10.40;;
68976;SDS011;56029;52.568;13.588;2023-04-06T04:51:15;18.93;;;10.03;;
68976;SDS011;56029;52.568;13.588;2023-04-06T04:53:41;20.17;;;10.70;;
68976;SDS011;56029;52.568;13.588;2023-04-06T04:56:06;18.47;;;10.63;;
68976;SDS011;56029;52.568;13.588;2023-04-06T04:58:32;19.92;;;10.48;;
68976;SDS011;56029;52.568;13.588;2023-04-06T05:00:57;19.50;;;9.83;;
68976;SDS011;56029;52.568;13.588;2023-04-06T05:03:23;19.03;;;9.77;;
68976;SDS011;56029;52.568;13.588;2023-04-06T05:05:50;19.08;;;10.02;;
68976;SDS011;56029;52.568;13.588;2023-04-06T05:08:16;18.50;;;10.43;;
68976;SDS011;56029;52.568;13.588;2023-04-06T05:10:42;17.80;;;9.73;;
68976;SDS011;56029;52.568;13.588;2023-04-06T05:13:08;19.13;;;10.25;;
68976;SDS011;56029;52.568;13.588;2023-04-06T05:15:33;19.20;;;10.03;;
68976;SDS011;56029;52.568;13.588;2023-04-06T05:18:06;18.50;;;10.20;;
68976;SDS011;56029;52.568;13.588;2023-04-06T05:20:32;17.10;;;9.65;;
68976;SDS011;56029;52.568;13.588;2023-04-06T05:22:58;18.60;;;10.60;;
68976;SDS011;56029;52.568;13.588;2023-04-06T05:25:24;18.23;;;9.70;;
68976;SDS011;56029;52.568;13.588;2023-04-06T05:27:50;17.92;;;10.07;;
68976;SDS011;56029;52.568;13.588;2023-04-06T05:30:16;17.57;;;9.63;;
68976;SDS011;56029;52.568;13.588;2023-04-06T05:32:42;16.98;;;9.65;;
68976;SDS011;56029;52.568;13.588;2023-04-06T05:35:09;18.42;;;9.77;;
68976;SDS011;56029;52.568;13.588;2023-04-06T05:37:35;19.05;;;10.25;;
68976;SDS011;56029;52.568;13.588;2023-04-06T05:40:01;17.48;;;9.88;;
68976;SDS011;56029;52.568;13.588;2023-04-06T05:42:26;19.37;;;10.10;;
68976;SDS011;56029;52.568;13.588;2023-04-06T05:44:52;17.92;;;9.80;;
68976;SDS011;56029;52.568;13.588;2023-04-06T05:47:18;16.95;;;9.80;;
68976;SDS011;56029;52.568;13.588;2023-04-06T05:49:43;17.67;;;9.65;;
68976;SDS011;56029;52.568;13.588;2023-04-06T05:52:09;17.43;;;9.63;;
68976;SDS011;56029;52.568;13.588;2023-04-06T05:54:36;16.17;;;9.70;;
68976;SDS011;56029;52.568;13.588;2023-04-06T05:57:02;16.30;;;9.25;;
68976;SDS011;56029;52.568;13.588;2023-04-06T05:59:29;17.25;;;9.07;;
68976;SDS011;56029;52.568;13.588;2023-04-06T06:01:55;19.13;;;10.05;;
68976;SDS011;56029;52.568;13.588;2023-04-06T06:04:21;15.53;;;8.90;;
68976;SDS011;56029;52.568;13.588;2023-04-06T06:06:46;16.00;;;9.53;;
68976;SDS011;56029;52.568;13.588;2023-04-06T06:09:12;17.73;;;10.00;;
68976;SDS011;56029;52.568;13.588;2023-04-06T06:11:37;16.27;;;8.85;;
68976;SDS011;56029;52.568;13.588;2023-04-06T06:14:03;16.15;;;9.75;;
68976;SDS011;56029;52.568;13.588;2023-04-06T06:16:29;16.93;;;9.47;;
68976;SDS011;56029;52.568;13.588;2023-04-06T06:18:55;15.90;;;9.17;;
68976;SDS011;56029;52.568;13.588;2023-04-06T06:21:20;14.38;;;8.40;;
68976;SDS011;56029;52.568;13.588;2023-04-06T06:23:46;15.13;;;8.30;;
68976;SDS011;56029;52.568;13.588;2023-04-06T06:26:13;13.30;;;8.00;;
68976;SDS011;56029;52.568;13.588;2023-04-06T06:28:38;15.37;;;8.50;;
68976;SDS011;56029;52.568;13.588;2023-04-06T06:31:04;16.35;;;8.80;;
68976;SDS011;56029;52.568;13.588;2023-04-06T06:33:29;12.57;;;8.03;;
68976;SDS011;56029;52.568;13.588;2023-04-06T06:35:55;14.03;;;8.17;;
68976;SDS011;56029;52.568;13.588;2023-04-06T06:38:20;14.13;;;7.97;;
68976;SDS011;56029;52.568;13.588;2023-04-06T06:40:46;14.63;;;7.53;;
68976;SDS011;56029;52.568;13.588;2023-04-06T06:43:12;12.97;;;7.83;;
68976;SDS011;56029;52.568;13.588;2023-04-06T06:45:38;12.55;;;7.55;;
68976;SDS011;56029;52.568;13.588;2023-04-06T06:48:03;15.97;;;8.07;;
68976;SDS011;56029;52.568;13.588;2023-04-06T06:50:29;13.70;;;7.80;;
68976;SDS011;56029;52.568;13.588;2023-04-06T06:52:54;12.00;;;7.23;;
68976;SDS011;56029;52.568;13.588;2023-04-06T06:55:20;13.98;;;7.70;;
68976;SDS011;56029;52.568;13.588;2023-04-06T06:57:46;12.57;;;7.20;;
68976;SDS011;56029;52.568;13.588;2023-04-06T07:00:12;13.10;;;7.67;;
68976;SDS011;56029;52.568;13.588;2023-04-06T07:02:38;13.15;;;7.40;;
68976;SDS011;56029;52.568;13.588;2023-04-06T07:05:04;12.55;;;7.10;;
68976;SDS011;56029;52.568;13.588;2023-04-06T07:07:31;12.43;;;7.10;;
68976;SDS011;56029;52.568;13.588;2023-04-06T07:09:57;11.73;;;6.80;;
68976;SDS011;56029;52.568;13.588;2023-04-06T07:12:23;11.95;;;7.00;;
68976;SDS011;56029;52.568;13.588;2023-04-06T07:14:48;10.70;;;6.30;;
68976;SDS011;56029;52.568;13.588;2023-04-06T07:17:14;10.93;;;6.53;;
68976;SDS011;56029;52.568;13.588;2023-04-06T07:19:40;11.43;;;6.43;;
68976;SDS011;56029;52.568;13.588;2023-04-06T07:22:05;13.47;;;6.50;;
68976;SDS011;56029;52.568;13.588;2023-04-06T07:24:31;10.20;;;5.90;;
68976;SDS011;56029;52.568;13.588;2023-04-06T07:26:58;11.00;;;6.00;;
68976;SDS011;56029;52.568;13.588;2023-04-06T07:29:24;11.48;;;6.20;;
68976;SDS011;56029;52.568;13.588;2023-04-06T07:31:49;9.93;;;5.60;;
68976;SDS011;56029;52.568;13.588;2023-04-06T07:34:15;12.27;;;5.93;;
68976;SDS011;56029;52.568;13.588;2023-04-06T07:36:40;10.07;;;5.60;;
68976;SDS011;56029;52.568;13.588;2023-04-06T07:39:06;11.35;;;5.72;;
68976;SDS011;56029;52.568;13.588;2023-04-06T07:41:32;11.17;;;5.83;;
68976;SDS011;56029;52.568;13.588;2023-04-06T07:43:58;10.43;;;6.05;;
68976;SDS011;56029;52.568;13.588;2023-04-06T07:46:23;12.43;;;5.80;;
68976;SDS011;56029;52.568;13.588;2023-04-06T07:48:50;11.13;;;5.68;;
68976;SDS011;56029;52.568;13.588;2023-04-06T07:51:16;9.35;;;5.60;;
68976;SDS011;56029;52.568;13.588;2023-04-06T07:53:45;10.00;;;5.10;;
68976;SDS011;56029;52.568;13.588;2023-04-06T07:56:11;10.38;;;5.30;;
68976;SDS011;56029;52.568;13.588;2023-04-06T07:58:37;11.38;;;5.45;;
68976;SDS011;56029;52.568;13.588;2023-04-06T08:01:03;8.83;;;5.33;;
68976;SDS011;56029;52.568;13.588;2023-04-06T08:03:29;9.57;;;5.30;;
68976;SDS011;56029;52.568;13.588;2023-04-06T08:05:54;10.57;;;4.87;;
68976;SDS011;56029;52.568;13.588;2023-04-06T08:08:20;8.43;;;4.78;;
68976;SDS011;56029;52.568;13.588;2023-04-06T08:10:49;10.20;;;4.57;;
68976;SDS011;56029;52.568;13.588;2023-04-06T08:13:15;8.37;;;4.40;;
68976;SDS011;56029;52.568;13.588;2023-04-06T08:15:41;8.40;;;4.43;;
68976;SDS011;56029;52.568;13.588;2023-04-06T08:18:08;7.88;;;4.10;;
68976;SDS011;56029;52.568;13.588;2023-04-06T08:20:34;8.15;;;4.13;;
68976;SDS011;56029;52.568;13.588;2023-04-06T08:23:00;7.82;;;4.50;;
68976;SDS011;56029;52.568;13.588;2023-04-06T08:25:25;8.40;;;4.40;;
68976;SDS011;56029;52.568;13.588;2023-04-06T08:27:51;7.53;;;4.37;;
68976;SDS011;56029;52.568;13.588;2023-04-06T08:30:17;8.88;;;4.35;;
68976;SDS011;56029;52.568;13.588;2023-04-06T08:32:44;7.00;;;4.10;;
68976;SDS011;56029;52.568;13.588;2023-04-06T08:35:10;6.83;;;3.63;;
68976;SDS011;56029;52.568;13.588;2023-04-06T08:37:36;8.02;;;3.90;;
68976;SDS011;56029;52.568;13.588;2023-04-06T08:40:02;7.33;;;3.00;;
68976;SDS011;56029;52.568;13.588;2023-04-06T08:42:28;7.38;;;3.50;;
68976;SDS011;56029;52.568;13.588;2023-04-06T08:45:05;5.88;;;3.30;;
68976;SDS011;56029;52.568;13.588;2023-04-06T08:47:31;6.28;;;3.28;;
68976;SDS011;56029;52.568;13.588;2023-04-06T08:49:57;6.90;;;2.93;;
68976;SDS011;56029;52.568;13.588;2023-04-06T08:52:24;7.35;;;2.85;;
68976;SDS011;56029;52.568;13.588;2023-04-06T08:54:50;5.83;;;3.00;;
68976;SDS011;56029;52.568;13.588;2023-04-06T08:57:16;6.25;;;2.97;;
68976;SDS011;56029;52.568;13.588;2023-04-06T08:59:42;6.30;;;3.10;;
68976;SDS011;56029;52.568;13.588;2023-04-06T09:02:08;8.30;;;3.63;;
68976;SDS011;56029;52.568;13.588;2023-04-06T09:04:42;6.35;;;3.33;;
68976;SDS011;56029;52.568;13.588;2023-04-06T09:07:09;4.75;;;2.90;;
68976;SDS011;56029;52.568;13.588;2023-04-06T09:09:34;7.47;;;3.20;;
68976;SDS011;56029;52.568;13.588;2023-04-06T09:12:00;7.65;;;3.50;;
68976;SDS011;56029;52.568;13.588;2023-04-06T09:14:34;6.65;;;3.28;;
68976;SDS011;56029;52.568;13.588;2023-04-06T09:17:04;7.15;;;3.35;;
68976;SDS011;56029;52.568;13.588;2023-04-06T09:19:30;6.27;;;3.70;;
68976;SDS011;56029;52.568;13.588;2023-04-06T09:22:05;6.93;;;3.33;;
68976;SDS011;56029;52.568;13.588;2023-04-06T09:27:15;7.03;;;3.50;;
68976;SDS011;56029;52.568;13.588;2023-04-06T09:29:43;6.40;;;3.27;;
68976;SDS011;56029;52.568;13.588;2023-04-06T09:32:17;5.38;;;2.97;;
68976;SDS011;56029;52.568;13.588;2023-04-06T09:34:42;5.73;;;3.13;;
68976;SDS011;56029;52.568;13.588;2023-04-06T09:37:16;6.40;;;2.80;;
68976;SDS011;56029;52.568;13.588;2023-04-06T09:39:43;5.70;;;2.90;;
68976;SDS011;56029;52.568;13.588;2023-04-06T09:42:11;5.63;;;3.08;;
68976;SDS011;56029;52.568;13.588;2023-04-06T09:44:47;6.10;;;3.10;;
68976;SDS011;56029;52.568;13.588;2023-04-06T09:47:13;5.90;;;2.97;;
68976;SDS011;56029;52.568;13.588;2023-04-06T09:49:41;5.15;;;2.95;;
68976;SDS011;56029;52.568;13.588;2023-04-06T09:52:08;5.35;;;2.80;;
68976;SDS011;56029;52.568;13.588;2023-04-06T09:54:37;6.53;;;3.03;;
68976;SDS011;56029;52.568;13.588;2023-04-06T10:00:05;4.22;;;2.28;;
68976;SDS011;56029;52.568;13.588;2023-04-06T10:02:58;4.72;;;2.20;;
68976;SDS011;56029;52.568;13.588;2023-04-06T10:05:43;4.80;;;2.40;;
68976;SDS011;56029;52.568;13.588;2023-04-06T10:08:15;4.93;;;2.40;;
68976;SDS011;56029;52.568;13.588;2023-04-06T10:10:41;4.47;;;2.30;;
68976;SDS011;56029;52.568;13.588;2023-04-06T10:13:08;5.43;;;2.60;;
68976;SDS011;56029;52.568;13.588;2023-04-06T10:15:38;4.35;;;2.50;;
68976;SDS011;56029;52.568;13.588;2023-04-06T10:18:04;5.28;;;2.58;;
68976;SDS011;56029;52.568;13.588;2023-04-06T10:20:36;6.40;;;2.55;;
68976;SDS011;56029;52.568;13.588;2023-04-06T10:25:58;3.78;;;2.05;;
68976;SDS011;56029;52.568;13.588;2023-04-06T10:28:25;5.00;;;2.10;;
68976;SDS011;56029;52.568;13.588;2023-04-06T10:30:58;4.40;;;2.53;;
68976;SDS011;56029;52.568;13.588;2023-04-06T10:33:30;5.20;;;2.55;;
68976;SDS011;56029;52.568;13.588;2023-04-06T10:35:56;4.97;;;2.40;;
68976;SDS011;56029;52.568;13.588;2023-04-06T10:38:35;4.15;;;2.40;;
68976;SDS011;56029;52.568;13.588;2023-04-06T10:41:09;4.43;;;2.25;;
68976;SDS011;56029;52.568;13.588;2023-04-06T10:43:38;3.67;;;2.13;;
68976;SDS011;56029;52.568;13.588;2023-04-06T10:46:05;3.43;;;2.00;;
68976;SDS011;56029;52.568;13.588;2023-04-06T10:48:42;5.00;;;2.20;;
68976;SDS011;56029;52.568;13.588;2023-04-06T10:51:12;4.70;;;2.20;;
68976;SDS011;56029;52.568;13.588;2023-04-06T10:53:41;3.88;;;2.10;;
68976;SDS011;56029;52.568;13.588;2023-04-06T10:56:15;4.65;;;2.50;;
68976;SDS011;56029;52.568;13.588;2023-04-06T10:58:45;4.60;;;2.50;;
68976;SDS011;56029;52.568;13.588;2023-04-06T11:01:12;3.80;;;1.88;;
68976;SDS011;56029;52.568;13.588;2023-04-06T11:03:46;4.25;;;2.10;;
68976;SDS011;56029;52.568;13.588;2023-04-06T11:06:23;3.72;;;2.10;;
68976;SDS011;56029;52.568;13.588;2023-04-06T11:08:51;5.28;;;2.25;;
68976;SDS011;56029;52.568;13.588;2023-04-06T11:11:17;3.73;;;2.00;;
68976;SDS011;56029;52.568;13.588;2023-04-06T11:16:15;4.45;;;2.28;;
68976;SDS011;56029;52.568;13.588;2023-04-06T11:18:53;5.22;;;2.53;;
68976;SDS011;56029;52.568;13.588;2023-04-06T11:24:06;4.60;;;2.47;;
68976;SDS011;56029;52.568;13.588;2023-04-06T11:26:39;4.20;;;2.35;;
68976;SDS011;56029;52.568;13.588;2023-04-06T11:29:09;7.25;;;2.75;;
68976;SDS011;56029;52.568;13.588;2023-04-06T11:31:39;5.35;;;2.47;;
68976;SDS011;56029;52.568;13.588;2023-04-06T11:34:09;4.70;;;2.50;;
68976;SDS011;56029;52.568;13.588;2023-04-06T11:36:42;5.23;;;2.57;;
68976;SDS011;56029;52.568;13.588;2023-04-06T11:39:09;5.07;;;2.78;;
68976;SDS011;56029;52.568;13.588;2023-04-06T11:41:35;5.95;;;2.60;;
68976;SDS011;56029;52.568;13.588;2023-04-06T11:44:01;5.30;;;2.50;;
68976;SDS011;56029;52.568;13.588;2023-04-06T11:46:30;5.05;;;2.38;;
68976;SDS011;56029;52.568;13.588;2023-04-06T11:48:59;4.87;;;2.87;;
68976;SDS011;56029;52.568;13.588;2023-04-06T11:51:35;7.30;;;3.25;;
68976;SDS011;56029;52.568;13.588;2023-04-06T11:54:02;7.03;;;3.30;;
68976;SDS011;56029;52.568;13.588;2023-04-06T11:56:28;7.47;;;3.17;;
68976;SDS011;56029;52.568;13.588;2023-04-06T11:58:55;5.32;;;3.08;;
68976;SDS011;56029;52.568;13.588;2023-04-06T12:01:24;6.15;;;3.10;;
68976;SDS011;56029;52.568;13.588;2023-04-06T12:03:51;5.68;;;2.72;;
68976;SDS011;56029;52.568;13.588;2023-04-06T12:06:17;5.37;;;2.40;;
68976;SDS011;56029;52.568;13.588;2023-04-06T12:08:43;5.72;;;2.97;;
68976;SDS011;56029;52.568;13.588;2023-04-06T12:11:10;6.10;;;2.88;;
68976;SDS011;56029;52.568;13.588;2023-04-06T12:13:36;7.03;;;2.88;;
68976;SDS011;56029;52.568;13.588;2023-04-06T12:16:02;5.85;;;3.17;;
68976;SDS011;56029;52.568;13.588;2023-04-06T12:18:28;5.17;;;3.00;;
68976;SDS011;56029;52.568;13.588;2023-04-06T12:20:55;6.50;;;3.00;;
68976;SDS011;56029;52.568;13.588;2023-04-06T12:23:20;5.20;;;3.27;;
68976;SDS011;56029;52.568;13.588;2023-04-06T12:25:46;6.37;;;3.20;;
68976;SDS011;56029;52.568;13.588;2023-04-06T12:28:12;7.47;;;3.10;;
68976;SDS011;56029;52.568;13.588;2023-04-06T12:30:37;6.10;;;3.03;;
68976;SDS011;56029;52.568;13.588;2023-04-06T12:33:03;4.87;;;2.90;;
68976;SDS011;56029;52.568;13.588;2023-04-06T12:35:29;5.67;;;2.90;;
68976;SDS011;56029;52.568;13.588;2023-04-06T12:37:58;4.80;;;2.70;;
68976;SDS011;56029;52.568;13.588;2023-04-06T12:40:24;4.95;;;3.15;;
68976;SDS011;56029;52.568;13.588;2023-04-06T12:42:50;4.65;;;2.90;;
68976;SDS011;56029;52.568;13.588;2023-04-06T12:45:16;5.40;;;2.80;;
68976;SDS011;56029;52.568;13.588;2023-04-06T12:47:41;5.20;;;3.00;;
68976;SDS011;56029;52.568;13.588;2023-04-06T12:50:07;6.28;;;2.85;;
68976;SDS011;56029;52.568;13.588;2023-04-06T12:52:33;6.60;;;2.93;;
68976;SDS011;56029;52.568;13.588;2023-04-06T12:55:00;6.30;;;2.70;;
68976;SDS011;56029;52.568;13.588;2023-04-06T12:57:27;5.70;;;2.80;;
68976;SDS011;56029;52.568;13.588;2023-04-06T12:59:53;6.90;;;3.08;;
68976;SDS011;56029;52.568;13.588;2023-04-06T13:02:18;4.90;;;2.93;;
68976;SDS011;56029;52.568;13.588;2023-04-06T13:04:48;5.68;;;2.70;;
68976;SDS011;56029;52.568;13.588;2023-04-06T13:07:13;4.35;;;2.47;;
68976;SDS011;56029;52.568;13.588;2023-04-06T13:09:42;4.50;;;2.60;;
68976;SDS011;56029;52.568;13.588;2023-04-06T13:12:07;4.43;;;2.57;;
68976;SDS011;56029;52.568;13.588;2023-04-06T13:14:33;5.57;;;2.50;;
68976;SDS011;56029;52.568;13.588;2023-04-06T13:16:59;5.10;;;2.65;;
68976;SDS011;56029;52.568;13.588;2023-04-06T13:19:24;5.00;;;2.58;;
68976;SDS011;56029;52.568;13.588;2023-04-06T13:21:50;5.03;;;2.60;;
68976;SDS011;56029;52.568;13.588;2023-04-06T13:24:16;4.27;;;2.63;;
68976;SDS011;56029;52.568;13.588;2023-04-06T13:26:42;4.27;;;2.40;;
68976;SDS011;56029;52.568;13.588;2023-04-06T13:29:07;3.97;;;2.50;;
68976;SDS011;56029;52.568;13.588;2023-04-06T13:31:33;6.30;;;2.70;;
68976;SDS011;56029;52.568;13.588;2023-04-06T13:33:58;4.23;;;2.57;;
68976;SDS011;56029;52.568;13.588;2023-04-06T13:36:24;4.50;;;2.50;;
68976;SDS011;56029;52.568;13.588;2023-04-06T13:38:51;7.43;;;2.70;;
68976;SDS011;56029;52.568;13.588;2023-04-06T13:41:18;5.43;;;2.70;;
68976;SDS011;56029;52.568;13.588;2023-04-06T13:43:46;4.83;;;2.70;;
68976;SDS011;56029;52.568;13.588;2023-04-06T13:46:12;6.80;;;2.83;;
68976;SDS011;56029;52.568;13.588;2023-04-06T13:48:37;4.17;;;2.50;;
68976;SDS011;56029;52.568;13.588;2023-04-06T13:51:10;4.75;;;2.50;;
68976;SDS011;56029;52.568;13.588;2023-04-06T13:53:35;4.50;;;2.58;;
68976;SDS011;56029;52.568;13.588;2023-04-06T13:56:01;5.00;;;2.57;;
68976;SDS011;56029;52.568;13.588;2023-04-06T13:58:26;4.17;;;2.50;;
68976;SDS011;56029;52.568;13.588;2023-04-06T14:00:52;5.83;;;2.60;;
68976;SDS011;56029;52.568;13.588;2023-04-06T14:03:17;5.57;;;2.73;;
68976;SDS011;56029;52.568;13.588;2023-04-06T14:05:46;5.53;;;2.80;;
68976;SDS011;56029;52.568;13.588;2023-04-06T14:08:12;4.05;;;2.63;;
68976;SDS011;56029;52.568;13.588;2023-04-06T14:10:41;4.57;;;2.72;;
68976;SDS011;56029;52.568;13.588;2023-04-06T14:13:07;5.82;;;2.50;;
68976;SDS011;56029;52.568;13.588;2023-04-06T14:15:33;5.33;;;2.60;;
68976;SDS011;56029;52.568;13.588;2023-04-06T14:17:59;5.15;;;3.00;;
68976;SDS011;56029;52.568;13.588;2023-04-06T14:20:25;4.88;;;2.50;;
68976;SDS011;56029;52.568;13.588;2023-04-06T14:22:51;4.37;;;2.70;;
68976;SDS011;56029;52.568;13.588;2023-04-06T14:25:18;4.30;;;2.50;;
68976;SDS011;56029;52.568;13.588;2023-04-06T14:27:43;4.27;;;2.27;;
68976;SDS011;56029;52.568;13.588;2023-04-06T14:30:09;3.63;;;2.30;;
68976;SDS011;56029;52.568;13.588;2023-04-06T14:32:35;7.22;;;2.70;;
68976;SDS011;56029;52.568;13.588;2023-04-06T14:35:03;4.15;;;2.80;;
68976;SDS011;56029;52.568;13.588;2023-04-06T14:37:29;4.38;;;2.58;;